ADDS METAR Data INFO
IDs: Format: Raw Decoded Include TAF

Data at: 2253 UTC 11 Dec 2017

PFWS 112156Z AUTO 15016KT 10SM CLR 03/01 A2931 RMK AO2 SLP929 T00330011
PFWS 112056Z AUTO 16016KT 10SM OVC039 03/02 A2928 RMK AO2 SLP920 T00280017 51055
PFWS 111956Z AUTO 14006KT 10SM BKN037 BKN049 01/01 A2923 RMK AO2 PRESRR SLP903 T00060006 FZRANO
PFWS 111856Z AUTO 17011KT 10SM FEW026 BKN045 01/00 A2917 RMK AO2 PRESRR SLP884 T00060000 FZRANO
PFWS 111837Z AUTO 17012KT 10SM SCT004 SCT025 BKN048 01/00 A2915 RMK AO2 FZRANO
PFWS 111756Z AUTO 17013KT 10SM BKN004 OVC060 01/01 A2912 RMK AO2 UPB14E36RAB36E37 PRESRR SLP865 P0000 60000 T00060006 10006 20000 53070 FZRANO
PFWS 111733Z AUTO 18015KT 3SM UP BR BKN004 OVC060 01/01 A2909 RMK AO2 UPB14 P0000 FZRANO
PFWS 111712Z AUTO 18015G20KT 1 1/4SM BR OVC004 01/00 A2907 RMK AO2 PRESRR FZRANO
PFWS 111656Z AUTO 18015KT 2SM BR OVC004 00/00 A2905 RMK AO2 UPB10E45 SLP841 P0000 T00000000 FZRANO
PFWS 111633Z AUTO 18013KT 1 1/2SM UP BR OVC004 00/00 A2902 RMK AO2 UPB10 PRESRR P0000 FZRANO
PFWS 111626Z AUTO 18014KT 2SM BR OVC004 01/00 A2901 RMK AO2 UPB10E23 P0000 FZRANO
PFWS 111603Z AUTO 19013G18KT 1 3/4SM BR OVC004 01/01 A2899 RMK AO2 PRESRR FZRANO
PFWS 111556Z AUTO 18012KT 3SM BR OVC004 01/00 A2898 RMK AO2 CIG 003V006 PRESRR SLP818 T00060000 FZRANO
PFWS 111531Z AUTO 18014KT 10SM BKN006 BKN025 OVC049 01/01 A2895 RMK AO2 CIG 004V010 FZRANO
PFWS 111527Z AUTO 18013KT 10SM SCT006 SCT025 OVC049 01/01 A2894 RMK AO2 FZRANO
PFWS 111456Z AUTO 17005KT 10SM FEW026 BKN048 OVC060 00/M01 A2891 RMK AO2 SLP795 60000 T00001006 53035 FZRANO
PFWS 111412Z AUTO 00000KT 10SM SCT026 OVC070 00/M01 A2886 RMK AO2 FZRANO
PFWS 111356Z AUTO 35004KT 10SM BKN028 OVC075 00/M01 A2885 RMK AO2 RAE22 SLP775 P0000 T00001006 FZRANO
PFWS 111353Z AUTO 35005KT 10SM BKN028 OVC075 00/M01 A2885 RMK AO2 RAE22 P0000 FZRANO
PFWS 111256Z AUTO 36003KT 10SM -RA FEW037 BKN048 OVC070 01/00 A2881 RMK AO2 RAB04E30B56UPB16E19 SLP760 P0000 T00060000 FZRANO
PFWS 111156Z AUTO 05008KT 10SM BKN049 BKN060 OVC080 01/00 A2877 RMK AO2 RAB05E34 SLP749 P0000 60000 70010 T00060000 10022 20006 53009 FZRANO
PFWS 111056Z AUTO 03011KT 10SM OVC043 01/00 A2876 RMK AO2 SLP745 T00110000 FZRANO
PFWS 110956Z AUTO 02012G20KT 10SM OVC070 01/00 A2875 RMK AO2 PK WND 02027/0908 SLP742 T00110000 FZRANO
PFWS 110856Z AUTO 02018G25KT 10SM FEW017 OVC075 01/00 A2875 RMK AO2 PK WND 02031/0759 UPE05 SLP740 P0000 60000 T00110000 400331050 56026 FZRANO
PFWS 110756Z AUTO 02022G30KT 10SM UP SCT020 SCT060 01/00 A2876 RMK AO2 PK WND 02034/0741 UPE26B51 SLP746 P0000 T00110000 FZRANO
PFWS 110556Z AUTO 03025G30KT 10SM UP FEW011 BKN075 OVC110 02/01 A2882 RMK AO2 PK WND 03030/0556 UPB10E27B55RAB27E44 PRESFR SLP765 P0000 60000 T00170011 10028 20017 57064 FZRANO
PFWS 110456Z AUTO 03018G22KT 10SM FEW019 BKN060 BKN120 02/00 A2889 RMK AO2 PRESFR SLP788 T00220000 FZRANO
PFWS 110445Z AUTO 02017G23KT 10SM SCT017 SCT065 BKN120 02/01 A2890 RMK AO2 FZRANO
PFWS 110428Z AUTO 02017KT 10SM BKN017 02/01 A2892 RMK AO2 PRESFR FZRANO
PFWS 110356Z AUTO 03020G26KT 10SM SCT110 02/01 A2895 RMK AO2 PK WND 03026/0356 SLP807 T00220006 FZRANO
PFWS 110256Z AUTO 03020G24KT 10SM BKN085 OVC110 02/01 A2901 RMK AO2 PK WND 04026/0227 SLP830 T00220006 58071 FZRANO
PFWS 110156Z AUTO 03013KT 10SM OVC090 02/01 A2909 RMK AO2 PRESFR SLP857 T00170006 FZRANO
PFWS 110056Z AUTO 04010KT 10SM BKN110 02/00 A2916 RMK AO2 SLP880 T00170000 FZRANO
PFWS 102356Z AUTO 09009KT 10SM CLR 03/01 A2922 RMK AO2 SLP901 60007 T00280006 10033 21017 58045
PFWS 102256Z AUTO 05010KT 10SM CLR 03/01 A2928 RMK AO2 SLP922 T00280006
PFWS 102156Z AUTO 08008KT 10SM CLR 01/01 A2933 RMK AO2 SLP936 T00060006 FZRANO
PFWS 102056Z AUTO 06006KT 10SM CLR 00/00 A2936 RMK AO2 SLP946 60007 T00000000 58003 FZRANO
PFWS 102003Z AUTO 06005KT 10SM FEW001 BKN047 BKN055 00/M01 A2937 RMK AO2 FZRANO
PFWS 101956Z AUTO 06005KT 10SM BKN050 OVC120 00/M01 A2938 RMK AO2 UPE03SNB03E28 SLP953 P0001 T00001006 FZRANO
PFWS 101856Z AUTO 03005KT 10SM UP BKN027 OVC036 M01/M01 A2936 RMK AO2 UPB46SNE46 SLP950 P0006 T10061011 FZRANO
PFWS 101756Z AUTO 05004KT 9SM -SN FEW015 BKN023 OVC031 M02/M02 A2936 RMK AO2 SLP950 P0003 60003 T10171022 11017 21050 53007 FZRANO
PFWS 101656Z AUTO 04009KT 9SM -SN BKN030 OVC036 M02/M03 A2936 RMK AO2 SNB04 SLP947 P0000 T10221033 FZRANO
PFWS 101556Z AUTO 04009KT 10SM BKN050 OVC070 M03/M05 A2935 RMK AO2 SNB36E47 SLP945 P0000 T10331050 FZRANO
PFWS 101456Z AUTO 02011KT 10SM OVC065 M04/M06 A2934 RMK AO2 SLP943 T10391056 58005 FZRANO
PFWS 101356Z AUTO 36007KT 10SM OVC070 M04/M06 A2935 RMK AO2 SLP945 T10441061 FZRANO
PFWS 101256Z AUTO 01011KT 10SM CLR M05/M07 A2936 RMK AO2 SLP947 T10501067 FZRANO
PFWS 101156Z AUTO 02012KT 10SM CLR M05/M07 A2936 RMK AO2 SLP947 T10501067 11022 21050 58003 FZRANO
PFWS 101056Z AUTO 03010KT 10SM FEW075 OVC090 M04/M06 A2937 RMK AO2 SLP952 T10441061 FZRANO